sensor_id;sensor_type;location;lat;lon;timestamp;P1;durP1;ratioP1;P2;durP2;ratioP2
46222;SDS011;31943;51.410;7.564;2023-09-18T02:27:39;5.50;;;4.03;;
46222;SDS011;31943;51.410;7.564;2023-09-18T02:30:06;8.13;;;4.40;;
46222;SDS011;31943;51.410;7.564;2023-09-18T02:32:32;11.95;;;4.70;;
46222;SDS011;31943;51.410;7.564;2023-09-18T02:34:58;4.55;;;4.10;;
46222;SDS011;31943;51.410;7.564;2023-09-18T02:37:24;7.40;;;4.47;;
46222;SDS011;31943;51.410;7.564;2023-09-18T02:39:49;5.90;;;3.83;;
46222;SDS011;31943;51.410;7.564;2023-09-18T02:42:15;7.93;;;3.55;;
46222;SDS011;31943;51.410;7.564;2023-09-18T02:44:43;6.45;;;4.03;;
46222;SDS011;31943;51.410;7.564;2023-09-18T02:47:08;5.85;;;4.32;;
46222;SDS011;31943;51.410;7.564;2023-09-18T02:49:34;5.93;;;4.03;;
46222;SDS011;31943;51.410;7.564;2023-09-18T02:51:59;6.05;;;3.50;;
46222;SDS011;31943;51.410;7.564;2023-09-18T02:54:25;9.23;;;4.35;;
46222;SDS011;31943;51.410;7.564;2023-09-18T02:56:51;9.20;;;4.10;;
46222;SDS011;31943;51.410;7.564;2023-09-18T02:59:16;5.60;;;4.13;;
46222;SDS011;31943;51.410;7.564;2023-09-18T03:01:44;6.65;;;3.70;;
46222;SDS011;31943;51.410;7.564;2023-09-18T03:04:09;4.95;;;3.42;;
46222;SDS011;31943;51.410;7.564;2023-09-18T03:06:37;5.68;;;4.00;;
46222;SDS011;31943;51.410;7.564;2023-09-18T03:09:03;7.15;;;3.40;;
46222;SDS011;31943;51.410;7.564;2023-09-18T03:11:29;5.60;;;3.63;;
46222;SDS011;31943;51.410;7.564;2023-09-18T03:13:54;6.60;;;3.35;;
46222;SDS011;31943;51.410;7.564;2023-09-18T03:16:20;8.13;;;3.58;;
46222;SDS011;31943;51.410;7.564;2023-09-18T03:18:47;5.47;;;3.30;;
46222;SDS011;31943;51.410;7.564;2023-09-18T03:21:13;7.93;;;3.50;;
46222;SDS011;31943;51.410;7.564;2023-09-18T03:23:38;5.78;;;2.90;;
46222;SDS011;31943;51.410;7.564;2023-09-18T03:26:04;6.32;;;2.80;;
46222;SDS011;31943;51.410;7.564;2023-09-18T03:28:30;7.30;;;3.00;;
46222;SDS011;31943;51.410;7.564;2023-09-18T03:30:55;5.60;;;2.88;;
46222;SDS011;31943;51.410;7.564;2023-09-18T03:33:21;9.27;;;3.05;;
46222;SDS011;31943;51.410;7.564;2023-09-18T03:35:48;5.15;;;2.72;;
46222;SDS011;31943;51.410;7.564;2023-09-18T03:38:15;8.93;;;3.20;;
46222;SDS011;31943;51.410;7.564;2023-09-18T03:40:40;8.93;;;3.15;;
46222;SDS011;31943;51.410;7.564;2023-09-18T03:43:06;5.43;;;2.58;;
46222;SDS011;31943;51.410;7.564;2023-09-18T03:45:31;5.95;;;3.05;;
46222;SDS011;31943;51.410;7.564;2023-09-18T03:47:57;7.53;;;3.17;;
46222;SDS011;31943;51.410;7.564;2023-09-18T03:50:22;7.85;;;3.13;;
46222;SDS011;31943;51.410;7.564;2023-09-18T03:52:50;6.45;;;3.03;;
46222;SDS011;31943;51.410;7.564;2023-09-18T03:55:16;5.80;;;2.47;;
46222;SDS011;31943;51.410;7.564;2023-09-18T03:57:41;7.60;;;3.28;;
46222;SDS011;31943;51.410;7.564;2023-09-18T04:00:07;8.85;;;2.90;;
46222;SDS011;31943;51.410;7.564;2023-09-18T04:02:33;8.20;;;2.72;;
46222;SDS011;31943;51.410;7.564;2023-09-18T04:04:59;7.78;;;2.60;;
46222;SDS011;31943;51.410;7.564;2023-09-18T04:07:24;6.85;;;2.58;;
46222;SDS011;31943;51.410;7.564;2023-09-18T04:09:52;9.13;;;3.10;;
46222;SDS011;31943;51.410;7.564;2023-09-18T04:12:18;4.80;;;2.78;;
46222;SDS011;31943;51.410;7.564;2023-09-18T04:14:43;6.70;;;2.50;;
46222;SDS011;31943;51.410;7.564;2023-09-18T04:17:09;4.30;;;2.25;;
46222;SDS011;31943;51.410;7.564;2023-09-18T04:19:34;6.03;;;2.30;;
46222;SDS011;31943;51.410;7.564;2023-09-18T04:22:00;7.53;;;2.53;;
46222;SDS011;31943;51.410;7.564;2023-09-18T04:24:26;7.47;;;2.80;;
46222;SDS011;31943;51.410;7.564;2023-09-18T04:26:53;8.52;;;2.60;;
46222;SDS011;31943;51.410;7.564;2023-09-18T04:29:19;6.07;;;2.50;;
46222;SDS011;31943;51.410;7.564;2023-09-18T04:31:45;7.25;;;2.60;;
46222;SDS011;31943;51.410;7.564;2023-09-18T04:34:11;10.10;;;2.97;;
46222;SDS011;31943;51.410;7.564;2023-09-18T04:36:36;9.15;;;2.28;;
46222;SDS011;31943;51.410;7.564;2023-09-18T04:39:02;10.48;;;2.92;;
46222;SDS011;31943;51.410;7.564;2023-09-18T04:41:28;8.45;;;2.45;;
46222;SDS011;31943;51.410;7.564;2023-09-18T04:43:56;9.88;;;3.40;;
46222;SDS011;31943;51.410;7.564;2023-09-18T04:46:21;8.05;;;2.85;;
46222;SDS011;31943;51.410;7.564;2023-09-18T04:48:47;14.77;;;3.42;;
46222;SDS011;31943;51.410;7.564;2023-09-18T04:51:13;11.98;;;3.35;;
46222;SDS011;31943;51.410;7.564;2023-09-18T04:53:39;7.97;;;2.92;;
46222;SDS011;31943;51.410;7.564;2023-09-18T04:56:04;9.75;;;3.05;;
46222;SDS011;31943;51.410;7.564;2023-09-18T04:58:30;9.10;;;3.33;;
46222;SDS011;31943;51.410;7.564;2023-09-18T05:01:00;12.27;;;3.15;;
46222;SDS011;31943;51.410;7.564;2023-09-18T05:03:26;11.70;;;3.53;;
46222;SDS011;31943;51.410;7.564;2023-09-18T05:05:53;11.05;;;3.55;;
46222;SDS011;31943;51.410;7.564;2023-09-18T05:08:20;10.40;;;2.95;;
46222;SDS011;31943;51.410;7.564;2023-09-18T05:10:47;8.70;;;2.85;;
46222;SDS011;31943;51.410;7.564;2023-09-18T05:13:13;8.25;;;2.70;;
46222;SDS011;31943;51.410;7.564;2023-09-18T05:15:38;7.32;;;2.92;;
46222;SDS011;31943;51.410;7.564;2023-09-18T05:18:06;9.55;;;2.60;;
46222;SDS011;31943;51.410;7.564;2023-09-18T05:20:34;8.07;;;2.75;;
46222;SDS011;31943;51.410;7.564;2023-09-18T05:23:00;8.13;;;2.78;;
46222;SDS011;31943;51.410;7.564;2023-09-18T05:25:26;7.95;;;2.70;;
46222;SDS011;31943;51.410;7.564;2023-09-18T05:27:54;8.65;;;2.63;;
46222;SDS011;31943;51.410;7.564;2023-09-18T05:30:21;9.82;;;3.08;;
46222;SDS011;31943;51.410;7.564;2023-09-18T05:32:47;10.30;;;2.83;;
46222;SDS011;31943;51.410;7.564;2023-09-18T05:35:14;9.30;;;3.40;;
46222;SDS011;31943;51.410;7.564;2023-09-18T05:37:40;9.32;;;3.15;;
46222;SDS011;31943;51.410;7.564;2023-09-18T05:40:07;10.18;;;2.97;;
46222;SDS011;31943;51.410;7.564;2023-09-18T05:42:35;9.80;;;3.00;;
46222;SDS011;31943;51.410;7.564;2023-09-18T05:45:01;9.93;;;2.85;;
46222;SDS011;31943;51.410;7.564;2023-09-18T05:47:27;10.00;;;3.25;;
46222;SDS011;31943;51.410;7.564;2023-09-18T05:49:53;11.75;;;3.17;;
46222;SDS011;31943;51.410;7.564;2023-09-18T05:52:20;8.85;;;2.60;;
46222;SDS011;31943;51.410;7.564;2023-09-18T05:54:46;8.13;;;2.53;;
46222;SDS011;31943;51.410;7.564;2023-09-18T05:57:12;11.20;;;2.95;;
46222;SDS011;31943;51.410;7.564;2023-09-18T05:59:37;7.97;;;2.60;;
46222;SDS011;31943;51.410;7.564;2023-09-18T06:02:03;9.18;;;2.80;;
46222;SDS011;31943;51.410;7.564;2023-09-18T06:04:29;10.20;;;2.70;;
46222;SDS011;31943;51.410;7.564;2023-09-18T06:06:55;11.05;;;2.80;;
46222;SDS011;31943;51.410;7.564;2023-09-18T06:09:23;7.30;;;2.80;;
46222;SDS011;31943;51.410;7.564;2023-09-18T06:11:49;9.90;;;3.08;;
46222;SDS011;31943;51.410;7.564;2023-09-18T06:14:14;7.63;;;2.70;;
46222;SDS011;31943;51.410;7.564;2023-09-18T06:16:40;6.32;;;1.98;;
46222;SDS011;31943;51.410;7.564;2023-09-18T06:19:06;7.45;;;2.30;;
46222;SDS011;31943;51.410;7.564;2023-09-18T06:21:32;7.30;;;2.50;;
46222;SDS011;31943;51.410;7.564;2023-09-18T06:23:58;7.55;;;2.50;;
46222;SDS011;31943;51.410;7.564;2023-09-18T06:26:25;7.57;;;3.13;;
46222;SDS011;31943;51.410;7.564;2023-09-18T06:28:50;7.72;;;2.63;;
46222;SDS011;31943;51.410;7.564;2023-09-18T06:31:16;7.93;;;2.65;;
46222;SDS011;31943;51.410;7.564;2023-09-18T06:33:42;7.32;;;2.63;;
46222;SDS011;31943;51.410;7.564;2023-09-18T06:36:07;11.43;;;2.92;;
46222;SDS011;31943;51.410;7.564;2023-09-18T06:38:33;5.70;;;2.10;;
46222;SDS011;31943;51.410;7.564;2023-09-18T06:40:58;6.05;;;2.30;;
46222;SDS011;31943;51.410;7.564;2023-09-18T06:43:26;5.43;;;2.17;;
46222;SDS011;31943;51.410;7.564;2023-09-18T06:45:52;8.38;;;2.78;;
46222;SDS011;31943;51.410;7.564;2023-09-18T06:48:17;4.68;;;2.05;;
46222;SDS011;31943;51.410;7.564;2023-09-18T06:50:43;4.93;;;2.00;;
46222;SDS011;31943;51.410;7.564;2023-09-18T06:53:09;8.90;;;2.70;;
46222;SDS011;31943;51.410;7.564;2023-09-18T06:55:34;6.50;;;2.25;;
46222;SDS011;31943;51.410;7.564;2023-09-18T06:58:00;6.20;;;2.42;;
46222;SDS011;31943;51.410;7.564;2023-09-18T07:00:29;5.47;;;2.08;;
46222;SDS011;31943;51.410;7.564;2023-09-18T07:02:55;6.55;;;2.33;;
46222;SDS011;31943;51.410;7.564;2023-09-18T07:05:21;5.70;;;2.40;;
46222;SDS011;31943;51.410;7.564;2023-09-18T07:07:47;8.43;;;2.33;;
46222;SDS011;31943;51.410;7.564;2023-09-18T07:10:12;7.18;;;2.05;;
46222;SDS011;31943;51.410;7.564;2023-09-18T07:13:19;5.85;;;2.13;;
46222;SDS011;31943;51.410;7.564;2023-09-18T07:15:46;7.25;;;2.35;;
46222;SDS011;31943;51.410;7.564;2023-09-18T07:18:11;5.75;;;1.90;;
46222;SDS011;31943;51.410;7.564;2023-09-18T07:20:37;7.50;;;2.50;;
46222;SDS011;31943;51.410;7.564;2023-09-18T07:23:03;7.70;;;2.22;;
46222;SDS011;31943;51.410;7.564;2023-09-18T07:25:29;5.00;;;1.95;;
46222;SDS011;31943;51.410;7.564;2023-09-18T07:27:54;4.85;;;2.53;;
46222;SDS011;31943;51.410;7.564;2023-09-18T07:30:20;7.88;;;2.42;;
46222;SDS011;31943;51.410;7.564;2023-09-18T07:32:47;9.20;;;1.95;;
46222;SDS011;31943;51.410;7.564;2023-09-18T07:35:14;4.68;;;1.85;;
46222;SDS011;31943;51.410;7.564;2023-09-18T07:37:39;6.25;;;1.75;;
46222;SDS011;31943;51.410;7.564;2023-09-18T07:40:06;3.58;;;1.70;;
46222;SDS011;31943;51.410;7.564;2023-09-18T07:42:32;5.35;;;1.77;;
46222;SDS011;31943;51.410;7.564;2023-09-18T07:44:58;7.93;;;2.13;;
46222;SDS011;31943;51.410;7.564;2023-09-18T07:47:23;6.45;;;2.08;;
46222;SDS011;31943;51.410;7.564;2023-09-18T07:49:50;6.13;;;2.00;;
46222;SDS011;31943;51.410;7.564;2023-09-18T07:52:16;5.68;;;2.17;;
46222;SDS011;31943;51.410;7.564;2023-09-18T07:54:43;4.43;;;2.08;;
46222;SDS011;31943;51.410;7.564;2023-09-18T07:57:09;8.45;;;2.50;;
46222;SDS011;31943;51.410;7.564;2023-09-18T07:59:34;5.68;;;1.77;;
46222;SDS011;31943;51.410;7.564;2023-09-18T08:02:00;6.65;;;2.00;;
46222;SDS011;31943;51.410;7.564;2023-09-18T08:04:26;5.22;;;1.80;;
46222;SDS011;31943;51.410;7.564;2023-09-18T08:06:53;6.90;;;2.10;;
46222;SDS011;31943;51.410;7.564;2023-09-18T08:09:22;5.25;;;1.65;;
46222;SDS011;31943;51.410;7.564;2023-09-18T08:11:48;4.68;;;2.05;;
46222;SDS011;31943;51.410;7.564;2023-09-18T08:14:14;5.00;;;1.63;;
46222;SDS011;31943;51.410;7.564;2023-09-18T08:16:40;7.70;;;1.88;;
46222;SDS011;31943;51.410;7.564;2023-09-18T08:19:07;5.72;;;1.65;;
46222;SDS011;31943;51.410;7.564;2023-09-18T08:21:34;4.78;;;1.70;;
46222;SDS011;31943;51.410;7.564;2023-09-18T08:24:01;4.70;;;1.85;;
46222;SDS011;31943;51.410;7.564;2023-09-18T08:26:27;4.22;;;1.75;;
46222;SDS011;31943;51.410;7.564;2023-09-18T08:28:53;4.20;;;1.83;;
46222;SDS011;31943;51.410;7.564;2023-09-18T08:31:19;6.55;;;1.60;;
46222;SDS011;31943;51.410;7.564;2023-09-18T08:33:45;7.65;;;2.17;;
46222;SDS011;31943;51.410;7.564;2023-09-18T08:36:10;5.10;;;1.80;;
46222;SDS011;31943;51.410;7.564;2023-09-18T08:38:36;5.05;;;1.60;;
46222;SDS011;31943;51.410;7.564;2023-09-18T08:41:04;3.67;;;1.50;;
46222;SDS011;31943;51.410;7.564;2023-09-18T08:43:29;5.93;;;1.70;;
46222;SDS011;31943;51.410;7.564;2023-09-18T08:45:56;5.45;;;1.42;;
46222;SDS011;31943;51.410;7.564;2023-09-18T08:48:23;4.25;;;1.58;;
46222;SDS011;31943;51.410;7.564;2023-09-18T08:50:49;3.85;;;1.30;;
46222;SDS011;31943;51.410;7.564;2023-09-18T08:53:16;5.50;;;1.85;;
46222;SDS011;31943;51.410;7.564;2023-09-18T08:55:42;2.85;;;1.23;;
46222;SDS011;31943;51.410;7.564;2023-09-18T08:58:09;3.75;;;1.30;;
46222;SDS011;31943;51.410;7.564;2023-09-18T09:00:36;4.93;;;1.50;;
46222;SDS011;31943;51.410;7.564;2023-09-18T09:03:02;3.45;;;1.38;;
46222;SDS011;31943;51.410;7.564;2023-09-18T09:05:29;4.20;;;1.60;;
46222;SDS011;31943;51.410;7.564;2023-09-18T09:07:55;5.40;;;1.77;;
46222;SDS011;31943;51.410;7.564;2023-09-18T09:10:20;2.88;;;1.27;;
46222;SDS011;31943;51.410;7.564;2023-09-18T09:12:47;3.30;;;1.58;;
46222;SDS011;31943;51.410;7.564;2023-09-18T09:15:16;4.30;;;1.42;;
46222;SDS011;31943;51.410;7.564;2023-09-18T09:17:43;7.97;;;1.60;;
46222;SDS011;31943;51.410;7.564;2023-09-18T09:20:09;3.92;;;1.23;;
46222;SDS011;31943;51.410;7.564;2023-09-18T09:22:35;5.45;;;1.52;;
46222;SDS011;31943;51.410;7.564;2023-09-18T09:25:03;4.05;;;1.52;;
46222;SDS011;31943;51.410;7.564;2023-09-18T09:27:41;2.50;;;1.70;;
46222;SDS011;31943;51.410;7.564;2023-09-18T09:30:07;3.08;;;1.92;;
46222;SDS011;31943;51.410;7.564;2023-09-18T09:32:35;5.38;;;1.30;;
46222;SDS011;31943;51.410;7.564;2023-09-18T09:35:01;6.10;;;1.17;;
46222;SDS011;31943;51.410;7.564;2023-09-18T09:37:29;3.42;;;1.67;;
46222;SDS011;31943;51.410;7.564;2023-09-18T09:39:55;2.83;;;1.25;;
46222;SDS011;31943;51.410;7.564;2023-09-18T09:42:21;3.55;;;1.10;;
46222;SDS011;31943;51.410;7.564;2023-09-18T09:44:47;4.53;;;1.10;;
46222;SDS011;31943;51.410;7.564;2023-09-18T09:47:20;3.85;;;1.25;;
46222;SDS011;31943;51.410;7.564;2023-09-18T09:49:48;7.30;;;2.47;;
46222;SDS011;31943;51.410;7.564;2023-09-18T09:52:17;6.10;;;1.73;;
46222;SDS011;31943;51.410;7.564;2023-09-18T09:54:43;4.30;;;1.40;;
46222;SDS011;31943;51.410;7.564;2023-09-18T09:57:11;4.65;;;1.63;;
46222;SDS011;31943;51.410;7.564;2023-09-18T09:59:37;3.17;;;1.23;;
46222;SDS011;31943;51.410;7.564;2023-09-18T10:02:05;3.17;;;1.25;;
46222;SDS011;31943;51.410;7.564;2023-09-18T10:04:32;5.45;;;1.50;;
46222;SDS011;31943;51.410;7.564;2023-09-18T10:07:05;3.25;;;1.30;;
46222;SDS011;31943;51.410;7.564;2023-09-18T10:09:31;4.78;;;1.38;;
46222;SDS011;31943;51.410;7.564;2023-09-18T10:12:00;6.70;;;1.50;;
46222;SDS011;31943;51.410;7.564;2023-09-18T10:14:29;5.18;;;1.10;;
46222;SDS011;31943;51.410;7.564;2023-09-18T10:16:56;3.58;;;0.95;;
46222;SDS011;31943;51.410;7.564;2023-09-18T10:19:31;4.82;;;1.30;;
46222;SDS011;31943;51.410;7.564;2023-09-18T10:22:08;3.42;;;1.10;;
46222;SDS011;31943;51.410;7.564;2023-09-18T10:24:41;2.75;;;1.00;;
46222;SDS011;31943;51.410;7.564;2023-09-18T10:27:11;3.60;;;1.15;;
46222;SDS011;31943;51.410;7.564;2023-09-18T10:29:38;4.43;;;1.13;;
46222;SDS011;31943;51.410;7.564;2023-09-18T10:32:06;3.50;;;1.10;;
46222;SDS011;31943;51.410;7.564;2023-09-18T10:34:32;1.80;;;0.98;;
46222;SDS011;31943;51.410;7.564;2023-09-18T10:37:01;3.30;;;1.10;;
46222;SDS011;31943;51.410;7.564;2023-09-18T10:39:30;1.45;;;0.98;;
46222;SDS011;31943;51.410;7.564;2023-09-18T10:41:57;2.35;;;1.20;;
46222;SDS011;31943;51.410;7.564;2023-09-18T10:44:26;3.05;;;1.10;;
46222;SDS011;31943;51.410;7.564;2023-09-18T10:46:53;2.47;;;1.27;;
46222;SDS011;31943;51.410;7.564;2023-09-18T10:49:19;1.20;;;0.88;;
46222;SDS011;31943;51.410;7.564;2023-09-18T10:51:47;2.58;;;1.20;;
46222;SDS011;31943;51.410;7.564;2023-09-18T10:54:15;4.32;;;1.13;;
46222;SDS011;31943;51.410;7.564;2023-09-18T10:56:43;3.22;;;1.30;;
46222;SDS011;31943;51.410;7.564;2023-09-18T10:59:09;4.88;;;1.88;;
46222;SDS011;31943;51.410;7.564;2023-09-18T11:01:36;3.50;;;1.25;;
46222;SDS011;31943;51.410;7.564;2023-09-18T11:04:03;1.98;;;1.00;;
46222;SDS011;31943;51.410;7.564;2023-09-18T11:06:30;2.53;;;0.98;;
46222;SDS011;31943;51.410;7.564;2023-09-18T11:09:26;2.92;;;1.02;;
46222;SDS011;31943;51.410;7.564;2023-09-18T11:11:57;6.80;;;1.30;;
46222;SDS011;31943;51.410;7.564;2023-09-18T11:14:39;5.70;;;1.25;;
46222;SDS011;31943;51.410;7.564;2023-09-18T11:17:09;4.60;;;1.17;;
46222;SDS011;31943;51.410;7.564;2023-09-18T11:20:01;3.80;;;1.10;;
46222;SDS011;31943;51.410;7.564;2023-09-18T11:22:29;2.58;;;1.25;;
46222;SDS011;31943;51.410;7.564;2023-09-18T11:27:58;3.13;;;1.20;;
46222;SDS011;31943;51.410;7.564;2023-09-18T11:30:23;3.70;;;1.42;;
46222;SDS011;31943;51.410;7.564;2023-09-18T11:32:50;5.03;;;1.45;;
46222;SDS011;31943;51.410;7.564;2023-09-18T11:35:16;4.82;;;1.10;;
46222;SDS011;31943;51.410;7.564;2023-09-18T11:37:43;2.95;;;1.38;;
46222;SDS011;31943;51.410;7.564;2023-09-18T11:45:58;9.48;;;1.42;;
46222;SDS011;31943;51.410;7.564;2023-09-18T11:48:25;2.60;;;1.23;;
46222;SDS011;31943;51.410;7.564;2023-09-18T11:50:52;2.50;;;0.90;;
46222;SDS011;31943;51.410;7.564;2023-09-18T11:53:17;2.40;;;0.98;;
46222;SDS011;31943;51.410;7.564;2023-09-18T11:55:45;1.80;;;0.90;;
46222;SDS011;31943;51.410;7.564;2023-09-18T11:58:10;4.47;;;1.10;;
46222;SDS011;31943;51.410;7.564;2023-09-18T12:00:43;3.45;;;0.88;;
46222;SDS011;31943;51.410;7.564;2023-09-18T12:03:15;3.00;;;0.90;;
46222;SDS011;31943;51.410;7.564;2023-09-18T12:05:42;3.17;;;1.30;;
46222;SDS011;31943;51.410;7.564;2023-09-18T12:08:08;4.68;;;1.20;;
46222;SDS011;31943;51.410;7.564;2023-09-18T12:10:34;2.67;;;0.93;;
46222;SDS011;31943;51.410;7.564;2023-09-18T12:13:00;2.50;;;0.93;;
46222;SDS011;31943;51.410;7.564;2023-09-18T12:15:26;3.45;;;1.00;;
46222;SDS011;31943;51.410;7.564;2023-09-18T12:17:54;3.42;;;1.10;;
46222;SDS011;31943;51.410;7.564;2023-09-18T12:20:20;1.52;;;0.90;;
46222;SDS011;31943;51.410;7.564;2023-09-18T12:22:47;6.32;;;1.20;;
46222;SDS011;31943;51.410;7.564;2023-09-18T12:25:17;3.28;;;1.20;;
46222;SDS011;31943;51.410;7.564;2023-09-18T12:27:44;3.20;;;1.40;;
46222;SDS011;31943;51.410;7.564;2023-09-18T12:30:10;2.92;;;1.05;;
46222;SDS011;31943;51.410;7.564;2023-09-18T12:32:37;2.58;;;0.95;;
46222;SDS011;31943;51.410;7.564;2023-09-18T12:35:05;2.25;;;1.08;;
46222;SDS011;31943;51.410;7.564;2023-09-18T12:37:31;3.08;;;1.08;;
46222;SDS011;31943;51.410;7.564;2023-09-18T12:39:56;3.25;;;1.10;;
46222;SDS011;31943;51.410;7.564;2023-09-18T12:42:22;1.38;;;0.80;;
46222;SDS011;31943;51.410;7.564;2023-09-18T12:44:48;2.95;;;1.35;;
46222;SDS011;31943;51.410;7.564;2023-09-18T12:47:15;1.88;;;1.10;;
46222;SDS011;31943;51.410;7.564;2023-09-18T12:49:41;3.20;;;1.02;;
46222;SDS011;31943;51.410;7.564;2023-09-18T12:52:08;3.15;;;0.77;;
46222;SDS011;31943;51.410;7.564;2023-09-18T12:54:38;2.65;;;1.05;;
46222;SDS011;31943;51.410;7.564;2023-09-18T12:57:04;3.90;;;1.20;;
46222;SDS011;31943;51.410;7.564;2023-09-18T12:59:31;1.35;;;0.80;;
46222;SDS011;31943;51.410;7.564;2023-09-18T13:01:56;2.25;;;1.20;;
46222;SDS011;31943;51.410;7.564;2023-09-18T13:04:22;1.70;;;0.93;;
46222;SDS011;31943;51.410;7.564;2023-09-18T13:06:52;1.75;;;0.90;;
46222;SDS011;31943;51.410;7.564;2023-09-18T13:09:29;2.83;;;0.93;;
46222;SDS011;31943;51.410;7.564;2023-09-18T13:11:55;3.25;;;0.88;;
46222;SDS011;31943;51.410;7.564;2023-09-18T13:14:22;2.65;;;0.90;;
46222;SDS011;31943;51.410;7.564;2023-09-18T13:16:48;3.60;;;1.20;;
46222;SDS011;31943;51.410;7.564;2023-09-18T13:19:14;2.22;;;1.13;;
46222;SDS011;31943;51.410;7.564;2023-09-18T13:21:45;2.13;;;1.10;;
46222;SDS011;31943;51.410;7.564;2023-09-18T13:24:23;5.07;;;1.15;;
46222;SDS011;31943;51.410;7.564;2023-09-18T13:26:53;2.28;;;1.40;;
46222;SDS011;31943;51.410;7.564;2023-09-18T13:29:19;3.90;;;1.00;;
46222;SDS011;31943;51.410;7.564;2023-09-18T13:34:11;3.67;;;0.90;;
46222;SDS011;31943;51.410;7.564;2023-09-18T13:36:37;1.58;;;0.98;;
46222;SDS011;31943;51.410;7.564;2023-09-18T13:39:02;2.63;;;1.00;;
46222;SDS011;31943;51.410;7.564;2023-09-18T13:41:28;2.42;;;1.20;;
46222;SDS011;31943;51.410;7.564;2023-09-18T13:43:56;2.25;;;1.02;;
46222;SDS011;31943;51.410;7.564;2023-09-18T13:46:23;1.83;;;1.02;;
46222;SDS011;31943;51.410;7.564;2023-09-18T13:48:49;2.80;;;1.08;;
46222;SDS011;31943;51.410;7.564;2023-09-18T13:51:16;3.53;;;1.10;;
46222;SDS011;31943;51.410;7.564;2023-09-18T13:53:41;1.58;;;1.00;;
46222;SDS011;31943;51.410;7.564;2023-09-18T13:56:07;2.58;;;1.23;;
46222;SDS011;31943;51.410;7.564;2023-09-18T13:58:33;2.33;;;1.10;;
46222;SDS011;31943;51.410;7.564;2023-09-18T14:01:01;2.17;;;1.00;;
46222;SDS011;31943;51.410;7.564;2023-09-18T14:03:26;2.95;;;1.13;;
46222;SDS011;31943;51.410;7.564;2023-09-18T14:05:53;3.90;;;1.00;;
46222;SDS011;31943;51.410;7.564;2023-09-18T14:08:19;2.60;;;1.13;;
46222;SDS011;31943;51.410;7.564;2023-09-18T14:10:45;3.25;;;1.23;;
46222;SDS011;31943;51.410;7.564;2023-09-18T14:13:12;2.50;;;1.00;;
46222;SDS011;31943;51.410;7.564;2023-09-18T14:15:39;2.70;;;1.30;;
46222;SDS011;31943;51.410;7.564;2023-09-18T14:18:07;2.00;;;1.13;;
46222;SDS011;31943;51.410;7.564;2023-09-18T14:20:33;3.95;;;1.33;;
46222;SDS011;31943;51.410;7.564;2023-09-18T14:23:00;1.70;;;0.80;;
46222;SDS011;31943;51.410;7.564;2023-09-18T14:25:25;2.20;;;1.10;;
46222;SDS011;31943;51.410;7.564;2023-09-18T14:27:52;3.95;;;1.10;;
46222;SDS011;31943;51.410;7.564;2023-09-18T14:30:18;4.30;;;1.13;;
46222;SDS011;31943;51.410;7.564;2023-09-18T14:32:44;3.00;;;1.15;;
46222;SDS011;31943;51.410;7.564;2023-09-18T14:35:11;2.20;;;1.10;;
46222;SDS011;31943;51.410;7.564;2023-09-18T14:37:37;1.73;;;1.00;;
46222;SDS011;31943;51.410;7.564;2023-09-18T14:40:03;3.42;;;1.10;;
46222;SDS011;31943;51.410;7.564;2023-09-18T14:42:31;2.67;;;1.00;;
46222;SDS011;31943;51.410;7.564;2023-09-18T14:45:02;3.83;;;1.00;;
46222;SDS011;31943;51.410;7.564;2023-09-18T14:47:32;2.30;;;1.30;;
46222;SDS011;31943;51.410;7.564;2023-09-18T14:49:59;2.88;;;1.00;;
46222;SDS011;31943;51.410;7.564;2023-09-18T14:52:26;1.90;;;1.23;;
46222;SDS011;31943;51.410;7.564;2023-09-18T14:54:52;1.95;;;1.10;;
46222;SDS011;31943;51.410;7.564;2023-09-18T14:57:19;1.92;;;1.00;;
46222;SDS011;31943;51.410;7.564;2023-09-18T14:59:45;3.15;;;0.95;;
46222;SDS011;31943;51.410;7.564;2023-09-18T15:02:10;1.65;;;1.00;;
46222;SDS011;31943;51.410;7.564;2023-09-18T15:04:36;4.40;;;1.17;;
46222;SDS011;31943;51.410;7.564;2023-09-18T15:07:02;3.03;;;1.02;;
46222;SDS011;31943;51.410;7.564;2023-09-18T15:09:31;1.30;;;0.90;;
46222;SDS011;31943;51.410;7.564;2023-09-18T15:11:57;2.30;;;1.10;;
46222;SDS011;31943;51.410;7.564;2023-09-18T15:14:23;2.05;;;1.25;;
46222;SDS011;31943;51.410;7.564;2023-09-18T15:16:49;4.15;;;1.00;;
46222;SDS011;31943;51.410;7.564;2023-09-18T15:19:15;1.85;;;1.00;;
46222;SDS011;31943;51.410;7.564;2023-09-18T15:21:40;5.35;;;1.23;;
46222;SDS011;31943;51.410;7.564;2023-09-18T15:24:07;1.67;;;1.02;;
46222;SDS011;31943;51.410;7.564;2023-09-18T15:26:34;1.55;;;1.00;;
46222;SDS011;31943;51.410;7.564;2023-09-18T15:29:00;1.65;;;1.00;;
46222;SDS011;31943;51.410;7.564;2023-09-18T15:31:25;3.03;;;1.00;;
46222;SDS011;31943;51.410;7.564;2023-09-18T15:33:51;1.48;;;0.77;;
46222;SDS011;31943;51.410;7.564;2023-09-18T15:36:17;2.65;;;1.23;;
46222;SDS011;31943;51.410;7.564;2023-09-18T15:38:43;2.15;;;1.17;;
46222;SDS011;31943;51.410;7.564;2023-09-18T15:41:09;1.88;;;1.05;;
46222;SDS011;31943;51.410;7.564;2023-09-18T15:43:36;3.13;;;1.30;;
46222;SDS011;31943;51.410;7.564;2023-09-18T15:46:01;2.42;;;1.10;;
46222;SDS011;31943;51.410;7.564;2023-09-18T15:48:27;1.90;;;0.70;;
46222;SDS011;31943;51.410;7.564;2023-09-18T15:50:53;2.72;;;0.90;;
46222;SDS011;31943;51.410;7.564;2023-09-18T15:53:19;2.00;;;0.90;;
46222;SDS011;31943;51.410;7.564;2023-09-18T15:55:44;6.80;;;1.35;;
46222;SDS011;31943;51.410;7.564;2023-09-18T15:58:10;2.78;;;1.30;;
46222;SDS011;31943;51.410;7.564;2023-09-18T16:00:38;1.73;;;1.08;;
46222;SDS011;31943;51.410;7.564;2023-09-18T16:03:03;2.08;;;1.00;;
46222;SDS011;31943;51.410;7.564;2023-09-18T16:05:29;2.67;;;1.25;;
46222;SDS011;31943;51.410;7.564;2023-09-18T16:07:54;2.90;;;1.20;;
46222;SDS011;31943;51.410;7.564;2023-09-18T16:10:20;1.77;;;0.90;;
46222;SDS011;31943;51.410;7.564;2023-09-18T16:12:46;1.95;;;1.08;;
46222;SDS011;31943;51.410;7.564;2023-09-18T16:15:11;1.67;;;1.13;;
46222;SDS011;31943;51.410;7.564;2023-09-18T16:17:38;1.52;;;1.02;;
46222;SDS011;31943;51.410;7.564;2023-09-18T16:20:04;1.67;;;1.05;;
46222;SDS011;31943;51.410;7.564;2023-09-18T16:22:30;3.75;;;1.20;;
46222;SDS011;31943;51.410;7.564;2023-09-18T16:24:56;2.22;;;1.00;;
46222;SDS011;31943;51.410;7.564;2023-09-18T16:27:21;1.80;;;0.98;;
46222;SDS011;31943;51.410;7.564;2023-09-18T16:29:47;1.77;;;0.90;;
46222;SDS011;31943;51.410;7.564;2023-09-18T16:32:12;1.88;;;1.05;;
46222;SDS011;31943;51.410;7.564;2023-09-18T16:34:39;2.30;;;1.00;;
46222;SDS011;31943;51.410;7.564;2023-09-18T16:37:05;2.10;;;1.00;;
46222;SDS011;31943;51.410;7.564;2023-09-18T16:39:30;3.13;;;1.15;;
46222;SDS011;31943;51.410;7.564;2023-09-18T16:41:56;1.27;;;0.95;;
46222;SDS011;31943;51.410;7.564;2023-09-18T16:44:22;2.85;;;0.98;;
46222;SDS011;31943;51.410;7.564;2023-09-18T16:46:47;2.75;;;1.23;;
46222;SDS011;31943;51.410;7.564;2023-09-18T16:49:13;1.77;;;1.00;;
46222;SDS011;31943;51.410;7.564;2023-09-18T16:51:40;1.83;;;1.17;;
46222;SDS011;31943;51.410;7.564;2023-09-18T16:54:06;2.55;;;1.10;;
46222;SDS011;31943;51.410;7.564;2023-09-18T16:56:31;1.77;;;1.08;;
46222;SDS011;31943;51.410;7.564;2023-09-18T16:58:57;2.58;;;1.20;;
46222;SDS011;31943;51.410;7.564;2023-09-18T17:01:22;4.57;;;0.88;;
46222;SDS011;31943;51.410;7.564;2023-09-18T17:03:48;2.58;;;1.02;;
46222;SDS011;31943;51.410;7.564;2023-09-18T17:06:14;2.15;;;1.00;;
46222;SDS011;31943;51.410;7.564;2023-09-18T17:08:41;2.35;;;1.00;;
46222;SDS011;31943;51.410;7.564;2023-09-18T17:11:07;2.58;;;1.00;;
46222;SDS011;31943;51.410;7.564;2023-09-18T17:13:32;1.63;;;0.90;;
46222;SDS011;31943;51.410;7.564;2023-09-18T17:15:58;1.92;;;1.08;;
46222;SDS011;31943;51.410;7.564;2023-09-18T17:18:23;1.60;;;1.10;;
46222;SDS011;31943;51.410;7.564;2023-09-18T17:20:49;2.45;;;1.27;;
46222;SDS011;31943;51.410;7.564;2023-09-18T17:23:14;2.13;;;1.20;;